sensor_id;sensor_type;location;lat;lon;timestamp;P1;durP1;ratioP1;P2;durP2;ratioP2
74892;SDS011;63446;56.272;43.922;2023-04-03T00:00:42;25.50;;;10.63;;
74892;SDS011;63446;56.272;43.922;2023-04-03T00:03:08;23.55;;;10.85;;
74892;SDS011;63446;56.272;43.922;2023-04-03T00:05:35;21.93;;;9.97;;
74892;SDS011;63446;56.272;43.922;2023-04-03T00:08:01;31.70;;;13.38;;
74892;SDS011;63446;56.272;43.922;2023-04-03T00:10:28;30.65;;;12.80;;
74892;SDS011;63446;56.272;43.922;2023-04-03T00:12:54;24.58;;;10.40;;
74892;SDS011;63446;56.272;43.922;2023-04-03T00:15:20;29.50;;;12.23;;
74892;SDS011;63446;56.272;43.922;2023-04-03T00:17:45;25.20;;;12.23;;
74892;SDS011;63446;56.272;43.922;2023-04-03T00:20:12;23.65;;;9.90;;
74892;SDS011;63446;56.272;43.922;2023-04-03T00:22:37;24.80;;;10.43;;
74892;SDS011;63446;56.272;43.922;2023-04-03T00:25:04;29.88;;;12.98;;
74892;SDS011;63446;56.272;43.922;2023-04-03T00:27:31;28.95;;;13.50;;
74892;SDS011;63446;56.272;43.922;2023-04-03T00:29:57;25.10;;;10.00;;
74892;SDS011;63446;56.272;43.922;2023-04-03T00:32:22;33.87;;;13.73;;
74892;SDS011;63446;56.272;43.922;2023-04-03T00:34:48;31.03;;;12.77;;
74892;SDS011;63446;56.272;43.922;2023-04-03T00:37:14;27.38;;;11.95;;
74892;SDS011;63446;56.272;43.922;2023-04-03T00:39:41;31.80;;;12.68;;
74892;SDS011;63446;56.272;43.922;2023-04-03T00:42:07;27.43;;;12.07;;
74892;SDS011;63446;56.272;43.922;2023-04-03T00:46:59;27.98;;;12.27;;
74892;SDS011;63446;56.272;43.922;2023-04-03T00:49:26;23.10;;;11.17;;
74892;SDS011;63446;56.272;43.922;2023-04-03T00:51:53;27.58;;;12.23;;
74892;SDS011;63446;56.272;43.922;2023-04-03T00:54:19;29.58;;;12.45;;
74892;SDS011;63446;56.272;43.922;2023-04-03T00:56:46;30.23;;;12.90;;
74892;SDS011;63446;56.272;43.922;2023-04-03T00:59:15;30.30;;;11.90;;
74892;SDS011;63446;56.272;43.922;2023-04-03T01:01:43;27.47;;;11.83;;
74892;SDS011;63446;56.272;43.922;2023-04-03T01:07:20;26.88;;;11.82;;
74892;SDS011;63446;56.272;43.922;2023-04-03T01:09:49;24.45;;;10.73;;
74892;SDS011;63446;56.272;43.922;2023-04-03T01:12:23;26.63;;;11.23;;
74892;SDS011;63446;56.272;43.922;2023-04-03T01:14:55;24.70;;;10.50;;
74892;SDS011;63446;56.272;43.922;2023-04-03T01:19:53;26.55;;;11.57;;
74892;SDS011;63446;56.272;43.922;2023-04-03T01:25:33;26.02;;;11.52;;
74892;SDS011;63446;56.272;43.922;2023-04-03T01:28:06;25.47;;;11.10;;
74892;SDS011;63446;56.272;43.922;2023-04-03T01:30:41;27.60;;;11.32;;
74892;SDS011;63446;56.272;43.922;2023-04-03T01:33:13;27.70;;;11.45;;
74892;SDS011;63446;56.272;43.922;2023-04-03T01:35:40;31.05;;;11.27;;
74892;SDS011;63446;56.272;43.922;2023-04-03T01:38:06;27.27;;;11.82;;
74892;SDS011;63446;56.272;43.922;2023-04-03T01:40:32;29.10;;;11.80;;
74892;SDS011;63446;56.272;43.922;2023-04-03T01:42:58;27.23;;;11.82;;
74892;SDS011;63446;56.272;43.922;2023-04-03T01:45:24;24.50;;;11.48;;
74892;SDS011;63446;56.272;43.922;2023-04-03T01:47:50;25.03;;;11.13;;
74892;SDS011;63446;56.272;43.922;2023-04-03T01:50:16;25.85;;;11.32;;
74892;SDS011;63446;56.272;43.922;2023-04-03T01:52:43;23.48;;;11.02;;
74892;SDS011;63446;56.272;43.922;2023-04-03T01:55:10;27.15;;;10.88;;
74892;SDS011;63446;56.272;43.922;2023-04-03T01:57:36;23.77;;;9.57;;
74892;SDS011;63446;56.272;43.922;2023-04-03T02:00:02;23.55;;;9.52;;
74892;SDS011;63446;56.272;43.922;2023-04-03T02:02:39;24.65;;;11.20;;
74892;SDS011;63446;56.272;43.922;2023-04-03T02:05:05;22.42;;;9.43;;
74892;SDS011;63446;56.272;43.922;2023-04-03T02:07:31;22.83;;;10.07;;
74892;SDS011;63446;56.272;43.922;2023-04-03T02:09:57;21.63;;;9.77;;
74892;SDS011;63446;56.272;43.922;2023-04-03T02:12:23;21.23;;;9.77;;
74892;SDS011;63446;56.272;43.922;2023-04-03T02:14:50;19.88;;;10.15;;
74892;SDS011;63446;56.272;43.922;2023-04-03T02:17:16;23.33;;;11.32;;
74892;SDS011;63446;56.272;43.922;2023-04-03T02:19:42;19.90;;;9.40;;
74892;SDS011;63446;56.272;43.922;2023-04-03T02:22:08;19.33;;;9.10;;
74892;SDS011;63446;56.272;43.922;2023-04-03T02:24:34;25.85;;;10.75;;
74892;SDS011;63446;56.272;43.922;2023-04-03T02:27:00;17.35;;;8.63;;
74892;SDS011;63446;56.272;43.922;2023-04-03T02:29:26;27.17;;;11.20;;
74892;SDS011;63446;56.272;43.922;2023-04-03T02:31:52;18.77;;;9.55;;
74892;SDS011;63446;56.272;43.922;2023-04-03T02:34:19;21.65;;;9.40;;
74892;SDS011;63446;56.272;43.922;2023-04-03T02:36:46;20.80;;;9.07;;
74892;SDS011;63446;56.272;43.922;2023-04-03T02:39:13;16.35;;;8.23;;
74892;SDS011;63446;56.272;43.922;2023-04-03T02:41:40;18.60;;;7.90;;
74892;SDS011;63446;56.272;43.922;2023-04-03T02:44:12;17.88;;;8.52;;
74892;SDS011;63446;56.272;43.922;2023-04-03T02:46:38;16.33;;;7.70;;
74892;SDS011;63446;56.272;43.922;2023-04-03T02:49:04;19.48;;;8.00;;
74892;SDS011;63446;56.272;43.922;2023-04-03T02:51:30;17.07;;;8.10;;
74892;SDS011;63446;56.272;43.922;2023-04-03T02:53:57;17.98;;;8.27;;
74892;SDS011;63446;56.272;43.922;2023-04-03T02:56:27;20.30;;;9.38;;
74892;SDS011;63446;56.272;43.922;2023-04-03T02:58:53;16.67;;;7.93;;
74892;SDS011;63446;56.272;43.922;2023-04-03T03:01:20;17.50;;;8.20;;
74892;SDS011;63446;56.272;43.922;2023-04-03T03:03:45;16.67;;;8.00;;
74892;SDS011;63446;56.272;43.922;2023-04-03T03:06:13;18.73;;;8.00;;
74892;SDS011;63446;56.272;43.922;2023-04-03T03:08:41;17.87;;;7.93;;
74892;SDS011;63446;56.272;43.922;2023-04-03T03:11:08;19.13;;;8.07;;
74892;SDS011;63446;56.272;43.922;2023-04-03T03:13:35;16.20;;;8.13;;
74892;SDS011;63446;56.272;43.922;2023-04-03T03:16:01;16.98;;;8.07;;
74892;SDS011;63446;56.272;43.922;2023-04-03T03:18:28;17.60;;;9.20;;
74892;SDS011;63446;56.272;43.922;2023-04-03T03:20:55;17.38;;;8.02;;
74892;SDS011;63446;56.272;43.922;2023-04-03T03:23:23;16.00;;;7.20;;
74892;SDS011;63446;56.272;43.922;2023-04-03T03:25:53;13.77;;;7.50;;
74892;SDS011;63446;56.272;43.922;2023-04-03T03:28:23;14.30;;;7.30;;
74892;SDS011;63446;56.272;43.922;2023-04-03T03:30:49;13.73;;;7.35;;
74892;SDS011;63446;56.272;43.922;2023-04-03T03:33:17;14.73;;;7.10;;
74892;SDS011;63446;56.272;43.922;2023-04-03T03:35:43;12.20;;;6.50;;
74892;SDS011;63446;56.272;43.922;2023-04-03T03:38:10;12.05;;;6.45;;
74892;SDS011;63446;56.272;43.922;2023-04-03T03:40:37;13.05;;;6.05;;
74892;SDS011;63446;56.272;43.922;2023-04-03T03:43:03;11.52;;;5.50;;
74892;SDS011;63446;56.272;43.922;2023-04-03T03:45:29;13.05;;;6.32;;
74892;SDS011;63446;56.272;43.922;2023-04-03T03:47:56;14.00;;;6.70;;
74892;SDS011;63446;56.272;43.922;2023-04-03T03:50:22;15.48;;;7.78;;
74892;SDS011;63446;56.272;43.922;2023-04-03T03:52:48;12.45;;;7.03;;
74892;SDS011;63446;56.272;43.922;2023-04-03T03:55:15;13.93;;;7.43;;
74892;SDS011;63446;56.272;43.922;2023-04-03T03:57:42;11.55;;;7.60;;
74892;SDS011;63446;56.272;43.922;2023-04-03T04:00:09;14.15;;;7.70;;
74892;SDS011;63446;56.272;43.922;2023-04-03T04:02:41;13.57;;;8.15;;
74892;SDS011;63446;56.272;43.922;2023-04-03T04:05:11;13.55;;;8.23;;
74892;SDS011;63446;56.272;43.922;2023-04-03T04:07:37;13.40;;;8.40;;
74892;SDS011;63446;56.272;43.922;2023-04-03T04:10:04;13.63;;;8.20;;
74892;SDS011;63446;56.272;43.922;2023-04-03T04:12:31;13.88;;;8.65;;
74892;SDS011;63446;56.272;43.922;2023-04-03T04:14:57;14.03;;;8.90;;
74892;SDS011;63446;56.272;43.922;2023-04-03T04:17:23;14.43;;;8.68;;
74892;SDS011;63446;56.272;43.922;2023-04-03T04:19:50;14.48;;;8.88;;
74892;SDS011;63446;56.272;43.922;2023-04-03T04:22:17;13.35;;;8.90;;
74892;SDS011;63446;56.272;43.922;2023-04-03T04:24:43;12.85;;;9.82;;
74892;SDS011;63446;56.272;43.922;2023-04-03T04:27:09;14.53;;;10.00;;
74892;SDS011;63446;56.272;43.922;2023-04-03T04:29:35;16.73;;;10.52;;
74892;SDS011;63446;56.272;43.922;2023-04-03T04:32:04;13.48;;;10.02;;
74892;SDS011;63446;56.272;43.922;2023-04-03T04:34:30;17.27;;;10.60;;
74892;SDS011;63446;56.272;43.922;2023-04-03T04:36:57;17.92;;;11.60;;
74892;SDS011;63446;56.272;43.922;2023-04-03T04:39:22;15.50;;;10.40;;
74892;SDS011;63446;56.272;43.922;2023-04-03T04:41:49;18.80;;;11.80;;
74892;SDS011;63446;56.272;43.922;2023-04-03T04:44:15;17.90;;;10.47;;
74892;SDS011;63446;56.272;43.922;2023-04-03T04:46:41;14.88;;;10.95;;
74892;SDS011;63446;56.272;43.922;2023-04-03T04:49:08;22.48;;;15.48;;
74892;SDS011;63446;56.272;43.922;2023-04-03T04:51:34;26.20;;;15.20;;
74892;SDS011;63446;56.272;43.922;2023-04-03T04:54:00;22.55;;;14.73;;
74892;SDS011;63446;56.272;43.922;2023-04-03T04:56:26;25.70;;;15.10;;
74892;SDS011;63446;56.272;43.922;2023-04-03T04:58:54;22.88;;;15.48;;
74892;SDS011;63446;56.272;43.922;2023-04-03T05:01:21;27.08;;;16.08;;
74892;SDS011;63446;56.272;43.922;2023-04-03T05:04:00;24.63;;;15.33;;
74892;SDS011;63446;56.272;43.922;2023-04-03T05:06:27;24.77;;;16.10;;
74892;SDS011;63446;56.272;43.922;2023-04-03T05:08:55;28.05;;;16.88;;
74892;SDS011;63446;56.272;43.922;2023-04-03T05:11:22;29.63;;;16.73;;
74892;SDS011;63446;56.272;43.922;2023-04-03T05:13:50;31.08;;;17.88;;
74892;SDS011;63446;56.272;43.922;2023-04-03T05:16:17;26.87;;;17.37;;
74892;SDS011;63446;56.272;43.922;2023-04-03T05:18:43;31.15;;;17.00;;
74892;SDS011;63446;56.272;43.922;2023-04-03T05:21:16;35.28;;;17.92;;
74892;SDS011;63446;56.272;43.922;2023-04-03T05:23:44;30.35;;;18.00;;
74892;SDS011;63446;56.272;43.922;2023-04-03T05:26:10;30.63;;;17.83;;
74892;SDS011;63446;56.272;43.922;2023-04-03T05:28:37;28.53;;;17.23;;
74892;SDS011;63446;56.272;43.922;2023-04-03T05:31:04;30.67;;;16.45;;
74892;SDS011;63446;56.272;43.922;2023-04-03T05:33:35;20.33;;;13.57;;
74892;SDS011;63446;56.272;43.922;2023-04-03T05:36:02;19.27;;;13.75;;
74892;SDS011;63446;56.272;43.922;2023-04-03T05:38:30;23.83;;;12.00;;
74892;SDS011;63446;56.272;43.922;2023-04-03T05:40:57;20.00;;;11.03;;
74892;SDS011;63446;56.272;43.922;2023-04-03T05:43:23;22.80;;;10.40;;
74892;SDS011;63446;56.272;43.922;2023-04-03T05:45:50;20.80;;;10.80;;
74892;SDS011;63446;56.272;43.922;2023-04-03T05:48:18;21.83;;;10.90;;
74892;SDS011;63446;56.272;43.922;2023-04-03T05:50:44;15.13;;;8.93;;
74892;SDS011;63446;56.272;43.922;2023-04-03T05:53:18;17.25;;;9.85;;
74892;SDS011;63446;56.272;43.922;2023-04-03T05:55:48;15.10;;;8.73;;
74892;SDS011;63446;56.272;43.922;2023-04-03T05:58:14;19.65;;;8.32;;
74892;SDS011;63446;56.272;43.922;2023-04-03T06:00:41;18.60;;;9.02;;
74892;SDS011;63446;56.272;43.922;2023-04-03T06:03:08;13.30;;;8.73;;
74892;SDS011;63446;56.272;43.922;2023-04-03T06:05:34;17.65;;;9.30;;
74892;SDS011;63446;56.272;43.922;2023-04-03T06:08:00;21.92;;;10.25;;
74892;SDS011;63446;56.272;43.922;2023-04-03T06:10:26;17.63;;;9.60;;
74892;SDS011;63446;56.272;43.922;2023-04-03T06:12:52;18.23;;;9.73;;
74892;SDS011;63446;56.272;43.922;2023-04-03T06:15:18;17.90;;;9.45;;
74892;SDS011;63446;56.272;43.922;2023-04-03T06:17:44;23.98;;;10.40;;
74892;SDS011;63446;56.272;43.922;2023-04-03T06:20:11;23.97;;;9.43;;
74892;SDS011;63446;56.272;43.922;2023-04-03T06:22:38;20.88;;;10.20;;
74892;SDS011;63446;56.272;43.922;2023-04-03T06:25:04;22.35;;;9.77;;
74892;SDS011;63446;56.272;43.922;2023-04-03T06:27:30;18.67;;;8.13;;
74892;SDS011;63446;56.272;43.922;2023-04-03T06:29:56;18.30;;;8.90;;
74892;SDS011;63446;56.272;43.922;2023-04-03T06:32:22;16.73;;;7.55;;
74892;SDS011;63446;56.272;43.922;2023-04-03T06:34:47;15.50;;;7.50;;
74892;SDS011;63446;56.272;43.922;2023-04-03T06:37:16;21.25;;;7.93;;
74892;SDS011;63446;56.272;43.922;2023-04-03T06:39:45;17.90;;;7.82;;
74892;SDS011;63446;56.272;43.922;2023-04-03T06:42:11;16.43;;;6.97;;
74892;SDS011;63446;56.272;43.922;2023-04-03T06:44:45;13.70;;;7.03;;
74892;SDS011;63446;56.272;43.922;2023-04-03T06:47:12;14.77;;;5.90;;
74892;SDS011;63446;56.272;43.922;2023-04-03T06:49:39;18.08;;;6.93;;
74892;SDS011;63446;56.272;43.922;2023-04-03T06:52:05;17.20;;;6.50;;
74892;SDS011;63446;56.272;43.922;2023-04-03T06:54:31;20.80;;;6.75;;
74892;SDS011;63446;56.272;43.922;2023-04-03T06:56:58;21.75;;;6.45;;
74892;SDS011;63446;56.272;43.922;2023-04-03T06:59:23;16.03;;;6.47;;
74892;SDS011;63446;56.272;43.922;2023-04-03T07:01:50;18.63;;;6.40;;
74892;SDS011;63446;56.272;43.922;2023-04-03T07:04:16;18.58;;;6.05;;
74892;SDS011;63446;56.272;43.922;2023-04-03T07:06:43;18.15;;;5.85;;
74892;SDS011;63446;56.272;43.922;2023-04-03T07:09:09;13.20;;;5.85;;
74892;SDS011;63446;56.272;43.922;2023-04-03T07:11:37;18.45;;;7.45;;
74892;SDS011;63446;56.272;43.922;2023-04-03T07:14:02;15.87;;;6.03;;
74892;SDS011;63446;56.272;43.922;2023-04-03T07:16:28;15.27;;;6.90;;
74892;SDS011;63446;56.272;43.922;2023-04-03T07:18:57;17.58;;;6.57;;
74892;SDS011;63446;56.272;43.922;2023-04-03T07:21:23;15.73;;;5.50;;
74892;SDS011;63446;56.272;43.922;2023-04-03T07:23:50;17.17;;;5.78;;
74892;SDS011;63446;56.272;43.922;2023-04-03T07:26:16;17.27;;;5.27;;
74892;SDS011;63446;56.272;43.922;2023-04-03T07:28:43;14.15;;;5.50;;
74892;SDS011;63446;56.272;43.922;2023-04-03T07:31:12;15.80;;;6.30;;
74892;SDS011;63446;56.272;43.922;2023-04-03T07:33:43;15.40;;;5.45;;
74892;SDS011;63446;56.272;43.922;2023-04-03T07:36:10;15.85;;;5.20;;
74892;SDS011;63446;56.272;43.922;2023-04-03T07:38:41;18.10;;;5.90;;
74892;SDS011;63446;56.272;43.922;2023-04-03T07:41:07;12.43;;;5.57;;
74892;SDS011;63446;56.272;43.922;2023-04-03T07:43:39;13.40;;;5.95;;
74892;SDS011;63446;56.272;43.922;2023-04-03T07:46:06;12.38;;;5.20;;
74892;SDS011;63446;56.272;43.922;2023-04-03T07:48:32;11.87;;;4.67;;
74892;SDS011;63446;56.272;43.922;2023-04-03T07:50:59;12.70;;;5.28;;
74892;SDS011;63446;56.272;43.922;2023-04-03T07:53:26;12.60;;;4.72;;
74892;SDS011;63446;56.272;43.922;2023-04-03T07:55:51;9.67;;;4.37;;
74892;SDS011;63446;56.272;43.922;2023-04-03T07:58:20;18.90;;;5.57;;
74892;SDS011;63446;56.272;43.922;2023-04-03T08:00:46;15.25;;;5.30;;
74892;SDS011;63446;56.272;43.922;2023-04-03T08:03:13;18.33;;;5.43;;
74892;SDS011;63446;56.272;43.922;2023-04-03T08:05:42;14.43;;;5.25;;
74892;SDS011;63446;56.272;43.922;2023-04-03T08:08:11;12.50;;;5.00;;
74892;SDS011;63446;56.272;43.922;2023-04-03T08:10:39;13.43;;;5.35;;
74892;SDS011;63446;56.272;43.922;2023-04-03T08:13:06;20.75;;;5.40;;
74892;SDS011;63446;56.272;43.922;2023-04-03T08:15:32;9.20;;;4.73;;
74892;SDS011;63446;56.272;43.922;2023-04-03T08:17:59;13.90;;;4.50;;
74892;SDS011;63446;56.272;43.922;2023-04-03T08:20:26;10.80;;;4.28;;
74892;SDS011;63446;56.272;43.922;2023-04-03T08:22:52;11.43;;;4.03;;
74892;SDS011;63446;56.272;43.922;2023-04-03T08:25:19;13.68;;;4.45;;
74892;SDS011;63446;56.272;43.922;2023-04-03T08:27:44;10.65;;;4.50;;
74892;SDS011;63446;56.272;43.922;2023-04-03T08:30:10;9.88;;;4.28;;
74892;SDS011;63446;56.272;43.922;2023-04-03T08:32:36;16.35;;;4.00;;
74892;SDS011;63446;56.272;43.922;2023-04-03T08:35:03;11.10;;;4.23;;
74892;SDS011;63446;56.272;43.922;2023-04-03T08:37:30;10.93;;;5.20;;
74892;SDS011;63446;56.272;43.922;2023-04-03T08:39:56;12.53;;;4.83;;
74892;SDS011;63446;56.272;43.922;2023-04-03T08:51:03;10.95;;;4.60;;
74892;SDS011;63446;56.272;43.922;2023-04-03T08:53:37;12.03;;;4.40;;
74892;SDS011;63446;56.272;43.922;2023-04-03T08:56:08;8.60;;;4.13;;
74892;SDS011;63446;56.272;43.922;2023-04-03T08:58:42;10.00;;;4.00;;
74892;SDS011;63446;56.272;43.922;2023-04-03T09:01:19;14.60;;;4.03;;
74892;SDS011;63446;56.272;43.922;2023-04-03T09:03:49;10.13;;;4.35;;
74892;SDS011;63446;56.272;43.922;2023-04-03T09:06:26;11.90;;;4.43;;
74892;SDS011;63446;56.272;43.922;2023-04-03T09:09:14;15.18;;;4.38;;
74892;SDS011;63446;56.272;43.922;2023-04-03T09:20:16;13.23;;;3.80;;
74892;SDS011;63446;56.272;43.922;2023-04-03T09:22:42;12.32;;;4.97;;
74892;SDS011;63446;56.272;43.922;2023-04-03T09:27:50;11.23;;;3.75;;
74892;SDS011;63446;56.272;43.922;2023-04-03T09:30:18;11.45;;;3.45;;
74892;SDS011;63446;56.272;43.922;2023-04-03T09:32:49;7.47;;;3.50;;
74892;SDS011;63446;56.272;43.922;2023-04-03T09:35:25;10.75;;;3.50;;
74892;SDS011;63446;56.272;43.922;2023-04-03T09:40:40;11.55;;;3.15;;
74892;SDS011;63446;56.272;43.922;2023-04-03T09:45:42;10.73;;;3.77;;
74892;SDS011;63446;56.272;43.922;2023-04-03T09:50:37;11.23;;;3.20;;
74892;SDS011;63446;56.272;43.922;2023-04-03T09:53:28;13.25;;;3.42;;
74892;SDS011;63446;56.272;43.922;2023-04-03T09:55:56;7.38;;;3.25;;
74892;SDS011;63446;56.272;43.922;2023-04-03T09:58:23;8.60;;;3.40;;
74892;SDS011;63446;56.272;43.922;2023-04-03T10:00:58;11.00;;;3.60;;
74892;SDS011;63446;56.272;43.922;2023-04-03T10:03:33;11.45;;;3.13;;
74892;SDS011;63446;56.272;43.922;2023-04-03T10:06:02;7.90;;;3.47;;
74892;SDS011;63446;56.272;43.922;2023-04-03T10:08:33;10.07;;;3.80;;
74892;SDS011;63446;56.272;43.922;2023-04-03T10:11:16;10.53;;;3.10;;
74892;SDS011;63446;56.272;43.922;2023-04-03T10:13:51;10.35;;;3.90;;
74892;SDS011;63446;56.272;43.922;2023-04-03T10:16:24;13.40;;;3.42;;
74892;SDS011;63446;56.272;43.922;2023-04-03T10:19:21;7.72;;;3.10;;
74892;SDS011;63446;56.272;43.922;2023-04-03T10:24:47;8.63;;;3.00;;
74892;SDS011;63446;56.272;43.922;2023-04-03T10:33:08;8.65;;;3.25;;
74892;SDS011;63446;56.272;43.922;2023-04-03T10:41:50;11.23;;;2.90;;
74892;SDS011;63446;56.272;43.922;2023-04-03T10:44:31;8.30;;;2.75;;
74892;SDS011;63446;56.272;43.922;2023-04-03T10:49:43;8.32;;;3.25;;
74892;SDS011;63446;56.272;43.922;2023-04-03T10:52:24;9.03;;;2.90;;
74892;SDS011;63446;56.272;43.922;2023-04-03T10:55:07;9.02;;;2.63;;
74892;SDS011;63446;56.272;43.922;2023-04-03T10:57:39;7.43;;;2.80;;
74892;SDS011;63446;56.272;43.922;2023-04-03T11:00:22;7.43;;;2.90;;
74892;SDS011;63446;56.272;43.922;2023-04-03T11:02:58;11.20;;;3.20;;
74892;SDS011;63446;56.272;43.922;2023-04-03T11:05:35;9.00;;;3.00;;
74892;SDS011;63446;56.272;43.922;2023-04-03T11:08:13;10.70;;;3.17;;
74892;SDS011;63446;56.272;43.922;2023-04-03T11:10:42;6.55;;;2.92;;
74892;SDS011;63446;56.272;43.922;2023-04-03T11:13:20;8.07;;;2.80;;
74892;SDS011;63446;56.272;43.922;2023-04-03T11:15:53;7.07;;;2.88;;
74892;SDS011;63446;56.272;43.922;2023-04-03T11:18:27;7.60;;;2.80;;
74892;SDS011;63446;56.272;43.922;2023-04-03T11:21:02;7.28;;;2.55;;
74892;SDS011;63446;56.272;43.922;2023-04-03T11:23:38;10.18;;;2.88;;
74892;SDS011;63446;56.272;43.922;2023-04-03T11:26:16;10.15;;;2.83;;
74892;SDS011;63446;56.272;43.922;2023-04-03T11:28:44;9.82;;;2.70;;
74892;SDS011;63446;56.272;43.922;2023-04-03T11:33:58;9.68;;;2.95;;
74892;SDS011;63446;56.272;43.922;2023-04-03T11:36:30;11.75;;;2.80;;
74892;SDS011;63446;56.272;43.922;2023-04-03T11:39:00;7.78;;;3.10;;
74892;SDS011;63446;56.272;43.922;2023-04-03T11:41:33;11.73;;;4.57;;
74892;SDS011;63446;56.272;43.922;2023-04-03T11:44:45;8.70;;;2.63;;
74892;SDS011;63446;56.272;43.922;2023-04-03T11:47:02;11.60;;;2.55;;
74892;SDS011;63446;56.272;43.922;2023-04-03T11:49:52;6.95;;;2.45;;
74892;SDS011;63446;56.272;43.922;2023-04-03T12:05:52;11.57;;;3.35;;
74892;SDS011;63446;56.272;43.922;2023-04-03T12:13:37;8.80;;;2.47;;
74892;SDS011;63446;56.272;43.922;2023-04-03T12:16:06;7.32;;;2.40;;
74892;SDS011;63446;56.272;43.922;2023-04-03T12:29:21;8.02;;;2.60;;
74892;SDS011;63446;56.272;43.922;2023-04-03T12:46:09;8.40;;;2.95;;
74892;SDS011;63446;56.272;43.922;2023-04-03T12:51:18;12.13;;;4.77;;
74892;SDS011;63446;56.272;43.922;2023-04-03T12:53:49;11.05;;;3.92;;
74892;SDS011;63446;56.272;43.922;2023-04-03T12:56:27;16.02;;;2.97;;
74892;SDS011;63446;56.272;43.922;2023-04-03T12:58:55;12.32;;;2.78;;
74892;SDS011;63446;56.272;43.922;2023-04-03T13:01:39;13.70;;;4.60;;
74892;SDS011;63446;56.272;43.922;2023-04-03T13:04:05;15.67;;;5.53;;
74892;SDS011;63446;56.272;43.922;2023-04-03T13:06:42;9.52;;;2.85;;
74892;SDS011;63446;56.272;43.922;2023-04-03T13:09:18;6.40;;;2.53;;
74892;SDS011;63446;56.272;43.922;2023-04-03T13:11:58;6.53;;;2.60;;
74892;SDS011;63446;56.272;43.922;2023-04-03T13:14:28;11.63;;;3.05;;
74892;SDS011;63446;56.272;43.922;2023-04-03T13:16:57;13.93;;;2.67;;
74892;SDS011;63446;56.272;43.922;2023-04-03T13:19:25;11.07;;;2.67;;
74892;SDS011;63446;56.272;43.922;2023-04-03T13:21:56;8.48;;;2.78;;
74892;SDS011;63446;56.272;43.922;2023-04-03T13:24:28;9.20;;;2.47;;
74892;SDS011;63446;56.272;43.922;2023-04-03T13:26:58;11.07;;;2.30;;
74892;SDS011;63446;56.272;43.922;2023-04-03T13:29:26;8.67;;;2.67;;
74892;SDS011;63446;56.272;43.922;2023-04-03T13:31:54;10.57;;;2.60;;
74892;SDS011;63446;56.272;43.922;2023-04-03T13:34:22;12.05;;;2.60;;
74892;SDS011;63446;56.272;43.922;2023-04-03T13:39:23;15.88;;;3.30;;
74892;SDS011;63446;56.272;43.922;2023-04-03T13:41:53;8.47;;;2.03;;
74892;SDS011;63446;56.272;43.922;2023-04-03T13:49:18;9.07;;;2.70;;
74892;SDS011;63446;56.272;43.922;2023-04-03T13:51:54;8.60;;;2.88;;
74892;SDS011;63446;56.272;43.922;2023-04-03T13:54:21;12.45;;;2.40;;
74892;SDS011;63446;56.272;43.922;2023-04-03T13:56:55;8.68;;;2.30;;
74892;SDS011;63446;56.272;43.922;2023-04-03T13:59:30;13.25;;;3.72;;
74892;SDS011;63446;56.272;43.922;2023-04-03T14:04:30;11.32;;;2.50;;
74892;SDS011;63446;56.272;43.922;2023-04-03T14:06:58;24.20;;;9.32;;
74892;SDS011;63446;56.272;43.922;2023-04-03T14:09:26;9.95;;;3.00;;
74892;SDS011;63446;56.272;43.922;2023-04-03T14:11:53;11.23;;;2.60;;
74892;SDS011;63446;56.272;43.922;2023-04-03T14:14:24;10.93;;;3.10;;
74892;SDS011;63446;56.272;43.922;2023-04-03T14:16:54;19.23;;;5.63;;
74892;SDS011;63446;56.272;43.922;2023-04-03T14:21:56;9.40;;;2.50;;
74892;SDS011;63446;56.272;43.922;2023-04-03T14:24:24;10.63;;;2.80;;
74892;SDS011;63446;56.272;43.922;2023-04-03T14:26:50;7.87;;;2.27;;
74892;SDS011;63446;56.272;43.922;2023-04-03T14:29:18;9.00;;;2.17;;
74892;SDS011;63446;56.272;43.922;2023-04-03T14:31:45;12.65;;;2.60;;
74892;SDS011;63446;56.272;43.922;2023-04-03T14:34:14;6.90;;;2.42;;
74892;SDS011;63446;56.272;43.922;2023-04-03T14:36:41;8.45;;;2.50;;
74892;SDS011;63446;56.272;43.922;2023-04-03T14:39:17;8.00;;;2.93;;
74892;SDS011;63446;56.272;43.922;2023-04-03T14:41:43;8.98;;;2.22;;
74892;SDS011;63446;56.272;43.922;2023-04-03T14:44:11;11.10;;;2.08;;
74892;SDS011;63446;56.272;43.922;2023-04-03T14:46:38;9.95;;;2.08;;
74892;SDS011;63446;56.272;43.922;2023-04-03T14:49:14;8.70;;;2.13;;
74892;SDS011;63446;56.272;43.922;2023-04-03T14:51:44;9.00;;;2.33;;
74892;SDS011;63446;56.272;43.922;2023-04-03T14:54:15;15.38;;;2.47;;
74892;SDS011;63446;56.272;43.922;2023-04-03T14:56:44;7.93;;;2.08;;
74892;SDS011;63446;56.272;43.922;2023-04-03T14:59:11;12.85;;;2.30;;
74892;SDS011;63446;56.272;43.922;2023-04-03T15:01:40;13.77;;;2.57;;
74892;SDS011;63446;56.272;43.922;2023-04-03T15:04:18;12.02;;;2.53;;
74892;SDS011;63446;56.272;43.922;2023-04-03T15:06:45;16.15;;;2.50;;
74892;SDS011;63446;56.272;43.922;2023-04-03T15:11:46;11.00;;;2.50;;
74892;SDS011;63446;56.272;43.922;2023-04-03T15:14:14;15.97;;;2.70;;
74892;SDS011;63446;56.272;43.922;2023-04-03T15:16:40;10.73;;;2.20;;
74892;SDS011;63446;56.272;43.922;2023-04-03T15:19:06;13.43;;;2.22;;
74892;SDS011;63446;56.272;43.922;2023-04-03T15:21:31;14.53;;;2.57;;
74892;SDS011;63446;56.272;43.922;2023-04-03T15:23:57;15.40;;;2.42;;
74892;SDS011;63446;56.272;43.922;2023-04-03T15:26:24;14.13;;;2.77;;
74892;SDS011;63446;56.272;43.922;2023-04-03T15:28:51;12.60;;;2.88;;
74892;SDS011;63446;56.272;43.922;2023-04-03T15:31:17;12.85;;;2.75;;
74892;SDS011;63446;56.272;43.922;2023-04-03T15:33:43;14.63;;;2.78;;
74892;SDS011;63446;56.272;43.922;2023-04-03T15:36:09;10.52;;;2.70;;
74892;SDS011;63446;56.272;43.922;2023-04-03T15:38:37;9.57;;;2.80;;
74892;SDS011;63446;56.272;43.922;2023-04-03T15:41:05;13.88;;;2.95;;
74892;SDS011;63446;56.272;43.922;2023-04-03T15:43:40;16.42;;;2.85;;
74892;SDS011;63446;56.272;43.922;2023-04-03T15:46:05;17.27;;;3.73;;
74892;SDS011;63446;56.272;43.922;2023-04-03T15:48:32;17.35;;;2.53;;
74892;SDS011;63446;56.272;43.922;2023-04-03T15:50:57;15.77;;;3.22;;
74892;SDS011;63446;56.272;43.922;2023-04-03T15:53:25;17.95;;;3.15;;
74892;SDS011;63446;56.272;43.922;2023-04-03T15:55:52;13.07;;;3.28;;
74892;SDS011;63446;56.272;43.922;2023-04-03T15:58:18;13.87;;;3.10;;
74892;SDS011;63446;56.272;43.922;2023-04-03T16:00:44;14.68;;;3.65;;
74892;SDS011;63446;56.272;43.922;2023-04-03T16:03:11;15.20;;;3.50;;
74892;SDS011;63446;56.272;43.922;2023-04-03T16:05:41;13.73;;;3.33;;
74892;SDS011;63446;56.272;43.922;2023-04-03T16:08:09;12.55;;;3.30;;
74892;SDS011;63446;56.272;43.922;2023-04-03T16:10:35;13.05;;;3.22;;
74892;SDS011;63446;56.272;43.922;2023-04-03T16:13:02;16.17;;;3.63;;
74892;SDS011;63446;56.272;43.922;2023-04-03T16:15:29;17.65;;;3.72;;
74892;SDS011;63446;56.272;43.922;2023-04-03T16:17:56;10.95;;;3.50;;
74892;SDS011;63446;56.272;43.922;2023-04-03T16:20:23;11.55;;;3.10;;
74892;SDS011;63446;56.272;43.922;2023-04-03T16:22:50;16.25;;;3.33;;
74892;SDS011;63446;56.272;43.922;2023-04-03T16:25:16;19.08;;;3.80;;
74892;SDS011;63446;56.272;43.922;2023-04-03T16:27:43;14.63;;;3.80;;
74892;SDS011;63446;56.272;43.922;2023-04-03T16:30:09;13.57;;;3.90;;